sensor_id;sensor_type;location;lat;lon;timestamp;temperature;humidity
52799;DHT22;38667;42.872;74.622;2023-09-07T00:00:55;15.50;60.70
52799;DHT22;38667;42.872;74.622;2023-09-07T00:03:24;15.40;59.30
52799;DHT22;38667;42.872;74.622;2023-09-07T00:05:50;15.40;60.10
52799;DHT22;38667;42.872;74.622;2023-09-07T00:08:16;15.20;62.90
52799;DHT22;38667;42.872;74.622;2023-09-07T00:10:42;15.20;60.90
52799;DHT22;38667;42.872;74.622;2023-09-07T00:13:10;15.10;61.90
52799;DHT22;38667;42.872;74.622;2023-09-07T00:15:37;15.10;63.00
52799;DHT22;38667;42.872;74.622;2023-09-07T00:18:04;15.10;61.50
52799;DHT22;38667;42.872;74.622;2023-09-07T00:20:30;15.10;61.90
52799;DHT22;38667;42.872;74.622;2023-09-07T00:22:57;15.10;62.30
52799;DHT22;38667;42.872;74.622;2023-09-07T00:25:23;15.10;61.70
52799;DHT22;38667;42.872;74.622;2023-09-07T00:27:49;15.00;60.90
52799;DHT22;38667;42.872;74.622;2023-09-07T00:30:17;15.00;61.80
52799;DHT22;38667;42.872;74.622;2023-09-07T00:32:43;14.90;62.80
52799;DHT22;38667;42.872;74.622;2023-09-07T00:35:10;14.80;62.20
52799;DHT22;38667;42.872;74.622;2023-09-07T00:37:37;14.80;61.60
52799;DHT22;38667;42.872;74.622;2023-09-07T00:40:04;14.70;62.70
52799;DHT22;38667;42.872;74.622;2023-09-07T00:42:30;14.70;62.30
52799;DHT22;38667;42.872;74.622;2023-09-07T00:44:57;14.70;63.10
52799;DHT22;38667;42.872;74.622;2023-09-07T00:47:25;14.70;63.20
52799;DHT22;38667;42.872;74.622;2023-09-07T00:49:51;14.70;64.60
52799;DHT22;38667;42.872;74.622;2023-09-07T00:52:17;14.80;64.50
52799;DHT22;38667;42.872;74.622;2023-09-07T00:54:44;14.90;65.10
52799;DHT22;38667;42.872;74.622;2023-09-07T00:57:11;14.90;65.30
52799;DHT22;38667;42.872;74.622;2023-09-07T00:59:38;14.90;63.20
52799;DHT22;38667;42.872;74.622;2023-09-07T01:02:04;15.00;61.60
52799;DHT22;38667;42.872;74.622;2023-09-07T01:04:32;15.10;62.70
52799;DHT22;38667;42.872;74.622;2023-09-07T01:07:03;15.10;62.70
52799;DHT22;38667;42.872;74.622;2023-09-07T01:09:35;14.90;63.90
52799;DHT22;38667;42.872;74.622;2023-09-07T01:12:03;14.90;63.90
52799;DHT22;38667;42.872;74.622;2023-09-07T01:14:29;14.90;65.10
52799;DHT22;38667;42.872;74.622;2023-09-07T01:16:56;14.90;64.10
52799;DHT22;38667;42.872;74.622;2023-09-07T01:19:22;14.90;63.70
52799;DHT22;38667;42.872;74.622;2023-09-07T01:21:50;14.90;64.00
52799;DHT22;38667;42.872;74.622;2023-09-07T01:24:17;14.90;64.40
52799;DHT22;38667;42.872;74.622;2023-09-07T01:26:45;15.00;64.70
52799;DHT22;38667;42.872;74.622;2023-09-07T01:29:11;15.00;64.80
52799;DHT22;38667;42.872;74.622;2023-09-07T01:31:38;15.10;63.10
52799;DHT22;38667;42.872;74.622;2023-09-07T01:34:04;15.10;64.10
52799;DHT22;38667;42.872;74.622;2023-09-07T01:36:31;15.20;62.30
52799;DHT22;38667;42.872;74.622;2023-09-07T01:38:59;15.20;63.20
52799;DHT22;38667;42.872;74.622;2023-09-07T01:41:25;15.30;58.10
52799;DHT22;38667;42.872;74.622;2023-09-07T01:43:51;15.40;58.00
52799;DHT22;38667;42.872;74.622;2023-09-07T01:46:17;15.60;59.20
52799;DHT22;38667;42.872;74.622;2023-09-07T01:48:44;15.70;60.00
52799;DHT22;38667;42.872;74.622;2023-09-07T01:51:10;15.70;58.70
52799;DHT22;38667;42.872;74.622;2023-09-07T01:53:36;15.80;58.40
52799;DHT22;38667;42.872;74.622;2023-09-07T01:56:04;15.90;59.20
52799;DHT22;38667;42.872;74.622;2023-09-07T01:58:30;16.00;58.90
52799;DHT22;38667;42.872;74.622;2023-09-07T02:00:57;16.10;56.70
52799;DHT22;38667;42.872;74.622;2023-09-07T02:03:24;16.10;55.80
52799;DHT22;38667;42.872;74.622;2023-09-07T02:05:52;16.20;55.80
52799;DHT22;38667;42.872;74.622;2023-09-07T02:08:18;16.30;56.20
52799;DHT22;38667;42.872;74.622;2023-09-07T02:10:44;16.40;56.70
52799;DHT22;38667;42.872;74.622;2023-09-07T02:13:12;16.50;57.70
52799;DHT22;38667;42.872;74.622;2023-09-07T02:15:39;16.60;57.10
52799;DHT22;38667;42.872;74.622;2023-09-07T02:18:05;16.70;59.60
52799;DHT22;38667;42.872;74.622;2023-09-07T02:20:32;16.70;59.60
52799;DHT22;38667;42.872;74.622;2023-09-07T02:22:58;16.80;59.80
52799;DHT22;38667;42.872;74.622;2023-09-07T02:25:24;16.80;59.50
52799;DHT22;38667;42.872;74.622;2023-09-07T02:27:51;16.90;60.00
52799;DHT22;38667;42.872;74.622;2023-09-07T02:30:19;17.00;59.30
52799;DHT22;38667;42.872;74.622;2023-09-07T02:32:45;17.10;59.00
52799;DHT22;38667;42.872;74.622;2023-09-07T02:35:11;17.20;58.80
52799;DHT22;38667;42.872;74.622;2023-09-07T02:37:38;17.30;58.50
52799;DHT22;38667;42.872;74.622;2023-09-07T02:40:05;17.40;58.20
52799;DHT22;38667;42.872;74.622;2023-09-07T02:42:31;17.50;57.70
52799;DHT22;38667;42.872;74.622;2023-09-07T02:44:58;17.60;57.30
52799;DHT22;38667;42.872;74.622;2023-09-07T02:47:26;17.70;57.20
52799;DHT22;38667;42.872;74.622;2023-09-07T02:49:52;17.70;57.00
52799;DHT22;38667;42.872;74.622;2023-09-07T02:52:18;17.90;56.80
52799;DHT22;38667;42.872;74.622;2023-09-07T02:54:45;18.00;56.60
52799;DHT22;38667;42.872;74.622;2023-09-07T02:57:11;18.10;56.40
52799;DHT22;38667;42.872;74.622;2023-09-07T02:59:38;18.10;56.20
52799;DHT22;38667;42.872;74.622;2023-09-07T03:02:04;18.30;56.10
52799;DHT22;38667;42.872;74.622;2023-09-07T03:04:32;18.30;55.80
52799;DHT22;38667;42.872;74.622;2023-09-07T03:07:00;18.40;55.70
52799;DHT22;38667;42.872;74.622;2023-09-07T03:09:27;18.50;56.10
52799;DHT22;38667;42.872;74.622;2023-09-07T03:11:53;18.50;55.60
52799;DHT22;38667;42.872;74.622;2023-09-07T03:14:19;18.60;55.10
52799;DHT22;38667;42.872;74.622;2023-09-07T03:16:45;18.80;54.80
52799;DHT22;38667;42.872;74.622;2023-09-07T03:19:12;18.80;54.50
52799;DHT22;38667;42.872;74.622;2023-09-07T03:21:40;18.90;54.50
52799;DHT22;38667;42.872;74.622;2023-09-07T03:24:06;19.00;54.40
52799;DHT22;38667;42.872;74.622;2023-09-07T03:26:32;19.10;54.30
52799;DHT22;38667;42.872;74.622;2023-09-07T03:28:59;19.20;54.40
52799;DHT22;38667;42.872;74.622;2023-09-07T03:31:25;19.20;54.20
52799;DHT22;38667;42.872;74.622;2023-09-07T03:33:51;19.30;54.20
52799;DHT22;38667;42.872;74.622;2023-09-07T03:36:18;19.40;54.00
52799;DHT22;38667;42.872;74.622;2023-09-07T03:38:45;19.40;53.70
52799;DHT22;38667;42.872;74.622;2023-09-07T03:41:12;19.50;53.80
52799;DHT22;38667;42.872;74.622;2023-09-07T03:43:38;19.50;53.60
52799;DHT22;38667;42.872;74.622;2023-09-07T03:46:05;19.60;53.60
52799;DHT22;38667;42.872;74.622;2023-09-07T03:48:31;19.70;53.50
52799;DHT22;38667;42.872;74.622;2023-09-07T03:50:57;19.70;53.30
52799;DHT22;38667;42.872;74.622;2023-09-07T03:53:24;19.80;53.00
52799;DHT22;38667;42.872;74.622;2023-09-07T03:55:52;19.90;52.80
52799;DHT22;38667;42.872;74.622;2023-09-07T03:58:18;19.90;52.50
52799;DHT22;38667;42.872;74.622;2023-09-07T04:00:44;20.00;52.30
52799;DHT22;38667;42.872;74.622;2023-09-07T04:03:11;20.00;52.10
52799;DHT22;38667;42.872;74.622;2023-09-07T04:05:37;20.10;51.90
52799;DHT22;38667;42.872;74.622;2023-09-07T04:08:04;20.10;51.30
52799;DHT22;38667;42.872;74.622;2023-09-07T04:10:31;20.20;50.20
52799;DHT22;38667;42.872;74.622;2023-09-07T04:12:58;20.30;49.80
52799;DHT22;38667;42.872;74.622;2023-09-07T04:15:25;20.30;49.20
52799;DHT22;38667;42.872;74.622;2023-09-07T04:17:51;20.30;49.10
52799;DHT22;38667;42.872;74.622;2023-09-07T04:20:17;20.30;49.30
52799;DHT22;38667;42.872;74.622;2023-09-07T04:22:44;20.40;49.30
52799;DHT22;38667;42.872;74.622;2023-09-07T04:25:10;20.50;48.20
52799;DHT22;38667;42.872;74.622;2023-09-07T04:27:36;20.50;48.00
52799;DHT22;38667;42.872;74.622;2023-09-07T04:30:05;20.60;47.90
52799;DHT22;38667;42.872;74.622;2023-09-07T04:32:32;20.70;47.80
52799;DHT22;38667;42.872;74.622;2023-09-07T04:34:58;20.70;46.90
52799;DHT22;38667;42.872;74.622;2023-09-07T04:37:24;20.80;47.50
52799;DHT22;38667;42.872;74.622;2023-09-07T04:39:51;20.80;48.10
52799;DHT22;38667;42.872;74.622;2023-09-07T04:42:18;20.90;48.20
52799;DHT22;38667;42.872;74.622;2023-09-07T04:44:45;20.90;47.60
52799;DHT22;38667;42.872;74.622;2023-09-07T04:47:13;21.00;47.50
52799;DHT22;38667;42.872;74.622;2023-09-07T04:49:39;21.00;46.80
52799;DHT22;38667;42.872;74.622;2023-09-07T04:52:06;21.00;46.90
52799;DHT22;38667;42.872;74.622;2023-09-07T04:54:32;21.10;46.80
52799;DHT22;38667;42.872;74.622;2023-09-07T04:56:58;21.20;46.70
52799;DHT22;38667;42.872;74.622;2023-09-07T04:59:24;21.20;46.00
52799;DHT22;38667;42.872;74.622;2023-09-07T05:01:51;21.20;45.20
52799;DHT22;38667;42.872;74.622;2023-09-07T05:04:19;21.40;46.30
52799;DHT22;38667;42.872;74.622;2023-09-07T05:06:45;21.40;45.90
52799;DHT22;38667;42.872;74.622;2023-09-07T05:09:11;21.50;46.10
52799;DHT22;38667;42.872;74.622;2023-09-07T05:11:37;21.50;46.40
52799;DHT22;38667;42.872;74.622;2023-09-07T05:14:04;21.70;46.10
52799;DHT22;38667;42.872;74.622;2023-09-07T05:16:30;21.70;46.10
52799;DHT22;38667;42.872;74.622;2023-09-07T05:18:56;21.70;44.10
52799;DHT22;38667;42.872;74.622;2023-09-07T05:21:24;21.70;44.40
52799;DHT22;38667;42.872;74.622;2023-09-07T05:23:51;21.80;44.90
52799;DHT22;38667;42.872;74.622;2023-09-07T05:26:21;21.80;44.70
52799;DHT22;38667;42.872;74.622;2023-09-07T05:28:48;21.90;45.00
52799;DHT22;38667;42.872;74.622;2023-09-07T05:31:14;21.90;45.10
52799;DHT22;38667;42.872;74.622;2023-09-07T05:33:40;22.00;45.10
52799;DHT22;38667;42.872;74.622;2023-09-07T05:36:07;22.00;45.50
52799;DHT22;38667;42.872;74.622;2023-09-07T05:38:34;22.10;45.80
52799;DHT22;38667;42.872;74.622;2023-09-07T05:41:01;22.10;44.60
52799;DHT22;38667;42.872;74.622;2023-09-07T05:43:27;22.20;45.10
52799;DHT22;38667;42.872;74.622;2023-09-07T05:45:53;22.40;45.10
52799;DHT22;38667;42.872;74.622;2023-09-07T05:48:20;22.60;45.10
52799;DHT22;38667;42.872;74.622;2023-09-07T05:50:46;22.90;45.10
52799;DHT22;38667;42.872;74.622;2023-09-07T05:53:12;23.10;44.40
52799;DHT22;38667;42.872;74.622;2023-09-07T05:55:40;23.10;43.50
52799;DHT22;38667;42.872;74.622;2023-09-07T05:58:08;23.10;43.60
52799;DHT22;38667;42.872;74.622;2023-09-07T06:00:34;23.00;43.60
52799;DHT22;38667;42.872;74.622;2023-09-07T06:03:01;23.10;43.30
52799;DHT22;38667;42.872;74.622;2023-09-07T06:05:27;23.10;43.10
52799;DHT22;38667;42.872;74.622;2023-09-07T06:07:54;23.20;43.00
52799;DHT22;38667;42.872;74.622;2023-09-07T06:10:20;23.40;42.40
52799;DHT22;38667;42.872;74.622;2023-09-07T06:12:48;23.70;42.50
52799;DHT22;38667;42.872;74.622;2023-09-07T06:15:14;23.80;43.40
52799;DHT22;38667;42.872;74.622;2023-09-07T06:17:40;23.90;41.70
52799;DHT22;38667;42.872;74.622;2023-09-07T06:20:08;23.90;41.00
52799;DHT22;38667;42.872;74.622;2023-09-07T06:22:35;23.80;39.90
52799;DHT22;38667;42.872;74.622;2023-09-07T06:25:01;23.70;40.30
52799;DHT22;38667;42.872;74.622;2023-09-07T06:27:27;23.80;40.90
52799;DHT22;38667;42.872;74.622;2023-09-07T06:29:55;23.80;40.90
52799;DHT22;38667;42.872;74.622;2023-09-07T06:32:22;23.70;41.30
52799;DHT22;38667;42.872;74.622;2023-09-07T06:34:49;23.70;41.50
52799;DHT22;38667;42.872;74.622;2023-09-07T06:37:15;23.80;42.10
52799;DHT22;38667;42.872;74.622;2023-09-07T06:39:41;23.80;42.20
52799;DHT22;38667;42.872;74.622;2023-09-07T06:42:08;23.80;41.70
52799;DHT22;38667;42.872;74.622;2023-09-07T06:44:34;23.90;41.40
52799;DHT22;38667;42.872;74.622;2023-09-07T06:47:02;24.00;41.30
52799;DHT22;38667;42.872;74.622;2023-09-07T06:49:28;24.10;41.30
52799;DHT22;38667;42.872;74.622;2023-09-07T06:51:55;24.20;41.10
52799;DHT22;38667;42.872;74.622;2023-09-07T06:54:21;24.30;40.00
52799;DHT22;38667;42.872;74.622;2023-09-07T06:56:47;24.30;39.30
52799;DHT22;38667;42.872;74.622;2023-09-07T06:59:14;24.30;38.70
52799;DHT22;38667;42.872;74.622;2023-09-07T07:01:40;24.30;39.10
52799;DHT22;38667;42.872;74.622;2023-09-07T07:04:08;24.40;39.10
52799;DHT22;38667;42.872;74.622;2023-09-07T07:06:34;24.40;39.00
52799;DHT22;38667;42.872;74.622;2023-09-07T07:09:01;24.50;36.70
52799;DHT22;38667;42.872;74.622;2023-09-07T07:11:27;24.50;37.00
52799;DHT22;38667;42.872;74.622;2023-09-07T07:13:53;24.50;37.80
52799;DHT22;38667;42.872;74.622;2023-09-07T07:16:20;24.60;38.20
52799;DHT22;38667;42.872;74.622;2023-09-07T07:18:46;24.60;38.10
52799;DHT22;38667;42.872;74.622;2023-09-07T07:21:14;24.60;38.00
52799;DHT22;38667;42.872;74.622;2023-09-07T07:23:40;24.80;38.10
52799;DHT22;38667;42.872;74.622;2023-09-07T07:26:06;25.10;36.60
52799;DHT22;38667;42.872;74.622;2023-09-07T07:28:33;25.30;36.80
52799;DHT22;38667;42.872;74.622;2023-09-07T07:30:59;25.30;37.30
52799;DHT22;38667;42.872;74.622;2023-09-07T07:33:32;25.20;36.80
52799;DHT22;38667;42.872;74.622;2023-09-07T07:35:58;25.20;35.60
52799;DHT22;38667;42.872;74.622;2023-09-07T07:38:27;25.10;36.50
52799;DHT22;38667;42.872;74.622;2023-09-07T07:40:53;25.00;37.60
52799;DHT22;38667;42.872;74.622;2023-09-07T07:43:19;25.00;37.90
52799;DHT22;38667;42.872;74.622;2023-09-07T07:45:45;25.10;38.30
52799;DHT22;38667;42.872;74.622;2023-09-07T07:48:12;25.20;38.00
52799;DHT22;38667;42.872;74.622;2023-09-07T07:50:38;25.10;36.20
52799;DHT22;38667;42.872;74.622;2023-09-07T07:53:04;24.90;36.90
52799;DHT22;38667;42.872;74.622;2023-09-07T07:55:34;24.80;36.10
52799;DHT22;38667;42.872;74.622;2023-09-07T07:58:00;24.60;36.30
52799;DHT22;38667;42.872;74.622;2023-09-07T08:00:27;24.60;36.40
52799;DHT22;38667;42.872;74.622;2023-09-07T08:02:53;24.60;36.20
52799;DHT22;38667;42.872;74.622;2023-09-07T08:05:19;24.70;35.50
52799;DHT22;38667;42.872;74.622;2023-09-07T08:07:46;24.70;34.20
52799;DHT22;38667;42.872;74.622;2023-09-07T08:10:12;24.80;34.20
52799;DHT22;38667;42.872;74.622;2023-09-07T08:12:40;24.80;34.70
52799;DHT22;38667;42.872;74.622;2023-09-07T08:15:07;24.80;36.30
52799;DHT22;38667;42.872;74.622;2023-09-07T08:17:33;24.80;37.50
52799;DHT22;38667;42.872;74.622;2023-09-07T08:19:59;24.90;37.10
52799;DHT22;38667;42.872;74.622;2023-09-07T08:22:26;25.00;36.40
52799;DHT22;38667;42.872;74.622;2023-09-07T08:24:52;25.10;37.20
52799;DHT22;38667;42.872;74.622;2023-09-07T08:27:18;25.10;37.10
52799;DHT22;38667;42.872;74.622;2023-09-07T08:29:46;25.20;36.70
52799;DHT22;38667;42.872;74.622;2023-09-07T08:32:12;25.30;36.10
52799;DHT22;38667;42.872;74.622;2023-09-07T08:34:39;25.30;35.80
52799;DHT22;38667;42.872;74.622;2023-09-07T08:37:05;25.40;35.80
52799;DHT22;38667;42.872;74.622;2023-09-07T08:39:31;25.40;35.90
52799;DHT22;38667;42.872;74.622;2023-09-07T08:41:58;25.40;36.60
52799;DHT22;38667;42.872;74.622;2023-09-07T08:44:25;25.40;35.50
52799;DHT22;38667;42.872;74.622;2023-09-07T08:46:54;25.40;34.90
52799;DHT22;38667;42.872;74.622;2023-09-07T08:49:21;25.40;35.30
52799;DHT22;38667;42.872;74.622;2023-09-07T08:51:48;25.30;35.30
52799;DHT22;38667;42.872;74.622;2023-09-07T08:54:14;25.10;35.30
52799;DHT22;38667;42.872;74.622;2023-09-07T08:56:41;25.30;35.90
52799;DHT22;38667;42.872;74.622;2023-09-07T08:59:08;25.80;35.20
52799;DHT22;38667;42.872;74.622;2023-09-07T09:01:34;26.30;35.00
52799;DHT22;38667;42.872;74.622;2023-09-07T09:04:02;26.20;33.10
52799;DHT22;38667;42.872;74.622;2023-09-07T09:06:28;25.80;33.40
52799;DHT22;38667;42.872;74.622;2023-09-07T09:08:56;25.50;33.60
52799;DHT22;38667;42.872;74.622;2023-09-07T09:11:23;25.20;34.10
52799;DHT22;38667;42.872;74.622;2023-09-07T09:13:51;25.30;34.10
52799;DHT22;38667;42.872;74.622;2023-09-07T09:16:17;25.30;34.60
52799;DHT22;38667;42.872;74.622;2023-09-07T09:18:48;25.60;34.70
52799;DHT22;38667;42.872;74.622;2023-09-07T09:21:16;25.80;34.50
52799;DHT22;38667;42.872;74.622;2023-09-07T09:23:43;25.90;34.50
52799;DHT22;38667;42.872;74.622;2023-09-07T09:26:09;25.90;33.60
52799;DHT22;38667;42.872;74.622;2023-09-07T09:28:36;26.00;33.10
52799;DHT22;38667;42.872;74.622;2023-09-07T09:31:03;26.20;32.80
52799;DHT22;38667;42.872;74.622;2023-09-07T09:33:31;26.10;32.20
52799;DHT22;38667;42.872;74.622;2023-09-07T09:35:58;26.10;32.20
52799;DHT22;38667;42.872;74.622;2023-09-07T09:38:26;26.20;32.80
52799;DHT22;38667;42.872;74.622;2023-09-07T09:40:52;26.90;30.90
52799;DHT22;38667;42.872;74.622;2023-09-07T09:43:20;27.50;31.10
52799;DHT22;38667;42.872;74.622;2023-09-07T09:45:46;27.60;31.70
52799;DHT22;38667;42.872;74.622;2023-09-07T09:48:15;27.60;31.90
52799;DHT22;38667;42.872;74.622;2023-09-07T09:50:42;27.10;32.10
52799;DHT22;38667;42.872;74.622;2023-09-07T09:53:10;26.60;31.00
52799;DHT22;38667;42.872;74.622;2023-09-07T09:55:39;26.30;31.00
52799;DHT22;38667;42.872;74.622;2023-09-07T09:58:06;26.00;32.10
52799;DHT22;38667;42.872;74.622;2023-09-07T10:00:33;25.90;33.10
52799;DHT22;38667;42.872;74.622;2023-09-07T10:03:04;25.90;32.70
52799;DHT22;38667;42.872;74.622;2023-09-07T10:05:32;25.80;30.90
52799;DHT22;38667;42.872;74.622;2023-09-07T10:08:01;25.60;32.30
52799;DHT22;38667;42.872;74.622;2023-09-07T10:10:33;25.60;32.90
52799;DHT22;38667;42.872;74.622;2023-09-07T10:13:01;25.50;33.40
52799;DHT22;38667;42.872;74.622;2023-09-07T10:15:28;25.50;31.70
52799;DHT22;38667;42.872;74.622;2023-09-07T10:18:05;25.50;31.50
52799;DHT22;38667;42.872;74.622;2023-09-07T10:23:16;25.30;33.00
52799;DHT22;38667;42.872;74.622;2023-09-07T10:25:43;25.20;33.80
52799;DHT22;38667;42.872;74.622;2023-09-07T10:28:22;25.20;33.70
52799;DHT22;38667;42.872;74.622;2023-09-07T10:31:02;25.10;32.80
52799;DHT22;38667;42.872;74.622;2023-09-07T10:33:29;25.10;33.10
52799;DHT22;38667;42.872;74.622;2023-09-07T10:35:55;25.20;32.90
52799;DHT22;38667;42.872;74.622;2023-09-07T10:38:22;25.20;33.40
52799;DHT22;38667;42.872;74.622;2023-09-07T10:40:54;25.20;34.20
52799;DHT22;38667;42.872;74.622;2023-09-07T10:43:22;25.30;33.30
52799;DHT22;38667;42.872;74.622;2023-09-07T10:45:48;25.20;33.50
52799;DHT22;38667;42.872;74.622;2023-09-07T10:48:14;25.20;34.90
52799;DHT22;38667;42.872;74.622;2023-09-07T10:50:45;25.20;34.60
52799;DHT22;38667;42.872;74.622;2023-09-07T10:53:13;25.10;35.00
52799;DHT22;38667;42.872;74.622;2023-09-07T10:55:40;25.10;34.70
52799;DHT22;38667;42.872;74.622;2023-09-07T10:58:07;25.20;34.50
52799;DHT22;38667;42.872;74.622;2023-09-07T11:00:35;25.20;32.40
52799;DHT22;38667;42.872;74.622;2023-09-07T11:03:07;25.20;33.30
52799;DHT22;38667;42.872;74.622;2023-09-07T11:05:34;25.20;33.70
52799;DHT22;38667;42.872;74.622;2023-09-07T11:08:01;25.20;33.50
52799;DHT22;38667;42.872;74.622;2023-09-07T11:10:28;25.20;34.20
52799;DHT22;38667;42.872;74.622;2023-09-07T11:12:57;25.30;35.00
52799;DHT22;38667;42.872;74.622;2023-09-07T11:15:27;25.20;35.20
52799;DHT22;38667;42.872;74.622;2023-09-07T11:18:03;25.20;35.40
52799;DHT22;38667;42.872;74.622;2023-09-07T11:20:30;25.20;35.20
52799;DHT22;38667;42.872;74.622;2023-09-07T11:22:56;25.10;35.10
52799;DHT22;38667;42.872;74.622;2023-09-07T11:25:22;25.10;34.50
52799;DHT22;38667;42.872;74.622;2023-09-07T11:27:49;25.20;34.90
52799;DHT22;38667;42.872;74.622;2023-09-07T11:30:16;25.10;34.90
52799;DHT22;38667;42.872;74.622;2023-09-07T11:32:43;25.10;34.30
52799;DHT22;38667;42.872;74.622;2023-09-07T11:35:11;25.00;33.60
52799;DHT22;38667;42.872;74.622;2023-09-07T11:37:37;25.00;34.30
52799;DHT22;38667;42.872;74.622;2023-09-07T11:40:04;25.00;34.70
52799;DHT22;38667;42.872;74.622;2023-09-07T11:42:31;25.00;34.80
52799;DHT22;38667;42.872;74.622;2023-09-07T11:44:57;25.10;35.00
52799;DHT22;38667;42.872;74.622;2023-09-07T11:47:24;25.00;35.20
52799;DHT22;38667;42.872;74.622;2023-09-07T11:49:50;25.00;35.60
52799;DHT22;38667;42.872;74.622;2023-09-07T11:52:18;25.00;35.70
52799;DHT22;38667;42.872;74.622;2023-09-07T11:54:44;25.00;35.90
52799;DHT22;38667;42.872;74.622;2023-09-07T11:57:10;25.00;35.80
52799;DHT22;38667;42.872;74.622;2023-09-07T11:59:37;24.90;35.40
52799;DHT22;38667;42.872;74.622;2023-09-07T12:02:03;24.90;35.70
52799;DHT22;38667;42.872;74.622;2023-09-07T12:04:29;24.90;35.80
52799;DHT22;38667;42.872;74.622;2023-09-07T12:06:56;24.90;35.20
52799;DHT22;38667;42.872;74.622;2023-09-07T12:09:24;24.90;34.70
52799;DHT22;38667;42.872;74.622;2023-09-07T12:11:50;24.80;34.00
52799;DHT22;38667;42.872;74.622;2023-09-07T12:14:16;24.80;34.10
52799;DHT22;38667;42.872;74.622;2023-09-07T12:16:43;24.90;34.20
52799;DHT22;38667;42.872;74.622;2023-09-07T12:19:09;24.80;34.80
52799;DHT22;38667;42.872;74.622;2023-09-07T12:21:35;24.80;35.00
52799;DHT22;38667;42.872;74.622;2023-09-07T12:24:02;24.80;34.50
52799;DHT22;38667;42.872;74.622;2023-09-07T12:26:29;24.70;34.60
52799;DHT22;38667;42.872;74.622;2023-09-07T12:28:56;24.70;35.00
52799;DHT22;38667;42.872;74.622;2023-09-07T12:31:26;24.70;35.40
52799;DHT22;38667;42.872;74.622;2023-09-07T12:33:52;24.70;36.10
52799;DHT22;38667;42.872;74.622;2023-09-07T12:36:19;24.70;36.30
52799;DHT22;38667;42.872;74.622;2023-09-07T12:38:45;24.60;36.40
52799;DHT22;38667;42.872;74.622;2023-09-07T12:41:11;24.50;37.20
52799;DHT22;38667;42.872;74.622;2023-09-07T12:43:39;24.30;38.10
52799;DHT22;38667;42.872;74.622;2023-09-07T12:46:06;24.10;39.20
52799;DHT22;38667;42.872;74.622;2023-09-07T12:48:32;24.00;38.20
52799;DHT22;38667;42.872;74.622;2023-09-07T12:50:58;23.90;37.80
52799;DHT22;38667;42.872;74.622;2023-09-07T12:53:25;23.80;37.80
52799;DHT22;38667;42.872;74.622;2023-09-07T12:55:58;23.70;37.30
52799;DHT22;38667;42.872;74.622;2023-09-07T12:58:29;23.70;37.10
52799;DHT22;38667;42.872;74.622;2023-09-07T13:01:02;23.60;37.10
52799;DHT22;38667;42.872;74.622;2023-09-07T13:03:33;23.50;37.60
52799;DHT22;38667;42.872;74.622;2023-09-07T13:06:08;23.50;37.80
52799;DHT22;38667;42.872;74.622;2023-09-07T13:08:38;23.40;38.10
52799;DHT22;38667;42.872;74.622;2023-09-07T13:11:07;23.30;38.10
52799;DHT22;38667;42.872;74.622;2023-09-07T13:13:35;23.20;38.80
52799;DHT22;38667;42.872;74.622;2023-09-07T13:16:03;23.10;39.90
52799;DHT22;38667;42.872;74.622;2023-09-07T13:18:29;23.00;39.60
52799;DHT22;38667;42.872;74.622;2023-09-07T13:20:56;23.00;39.80
52799;DHT22;38667;42.872;74.622;2023-09-07T13:23:22;23.00;39.60
52799;DHT22;38667;42.872;74.622;2023-09-07T13:25:49;22.90;40.40
52799;DHT22;38667;42.872;74.622;2023-09-07T13:28:15;22.90;40.50
52799;DHT22;38667;42.872;74.622;2023-09-07T13:30:41;22.80;40.30
52799;DHT22;38667;42.872;74.622;2023-09-07T13:33:09;22.70;40.80
52799;DHT22;38667;42.872;74.622;2023-09-07T13:35:35;22.70;43.70
52799;DHT22;38667;42.872;74.622;2023-09-07T13:38:02;22.60;44.30
52799;DHT22;38667;42.872;74.622;2023-09-07T13:40:28;22.50;44.90
52799;DHT22;38667;42.872;74.622;2023-09-07T13:42:55;22.40;44.60
52799;DHT22;38667;42.872;74.622;2023-09-07T13:45:22;22.40;43.50
52799;DHT22;38667;42.872;74.622;2023-09-07T13:47:48;22.30;43.00
52799;DHT22;38667;42.872;74.622;2023-09-07T13:50:16;22.20;43.60
52799;DHT22;38667;42.872;74.622;2023-09-07T13:52:42;22.20;44.70
52799;DHT22;38667;42.872;74.622;2023-09-07T13:55:09;22.10;45.70
52799;DHT22;38667;42.872;74.622;2023-09-07T13:57:35;22.10;45.40
52799;DHT22;38667;42.872;74.622;2023-09-07T14:00:02;22.00;46.60
52799;DHT22;38667;42.872;74.622;2023-09-07T14:02:29;22.00;45.50
52799;DHT22;38667;42.872;74.622;2023-09-07T14:04:55;22.00;46.10
52799;DHT22;38667;42.872;74.622;2023-09-07T14:07:23;21.90;47.30
52799;DHT22;38667;42.872;74.622;2023-09-07T14:09:49;21.90;48.50
52799;DHT22;38667;42.872;74.622;2023-09-07T14:12:15;21.90;47.60
52799;DHT22;38667;42.872;74.622;2023-09-07T14:14:42;21.90;46.60
52799;DHT22;38667;42.872;74.622;2023-09-07T14:17:08;21.80;46.70
52799;DHT22;38667;42.872;74.622;2023-09-07T14:19:34;21.80;47.70
52799;DHT22;38667;42.872;74.622;2023-09-07T14:22:01;21.70;48.30
52799;DHT22;38667;42.872;74.622;2023-09-07T14:24:28;21.70;49.20
52799;DHT22;38667;42.872;74.622;2023-09-07T14:26:55;21.70;48.60
52799;DHT22;38667;42.872;74.622;2023-09-07T14:29:21;21.70;49.00
52799;DHT22;38667;42.872;74.622;2023-09-07T14:31:47;21.70;43.90
52799;DHT22;38667;42.872;74.622;2023-09-07T14:34:14;21.90;42.00
52799;DHT22;38667;42.872;74.622;2023-09-07T14:36:40;22.10;41.50
52799;DHT22;38667;42.872;74.622;2023-09-07T14:39:07;22.10;41.00
52799;DHT22;38667;42.872;74.622;2023-09-07T14:41:35;22.20;41.10
52799;DHT22;38667;42.872;74.622;2023-09-07T14:44:01;22.20;42.00
52799;DHT22;38667;42.872;74.622;2023-09-07T14:46:28;22.20;43.90
52799;DHT22;38667;42.872;74.622;2023-09-07T14:48:54;22.00;43.80
52799;DHT22;38667;42.872;74.622;2023-09-07T14:51:21;22.00;43.40
52799;DHT22;38667;42.872;74.622;2023-09-07T14:53:47;21.90;44.50
52799;DHT22;38667;42.872;74.622;2023-09-07T14:56:14;21.90;43.10
52799;DHT22;38667;42.872;74.622;2023-09-07T14:58:41;21.90;42.30
52799;DHT22;38667;42.872;74.622;2023-09-07T15:01:08;21.90;42.20
52799;DHT22;38667;42.872;74.622;2023-09-07T15:03:34;21.90;42.10
52799;DHT22;38667;42.872;74.622;2023-09-07T15:06:00;21.90;42.20
52799;DHT22;38667;42.872;74.622;2023-09-07T15:08:27;21.90;41.80
52799;DHT22;38667;42.872;74.622;2023-09-07T15:10:53;21.90;40.80
52799;DHT22;38667;42.872;74.622;2023-09-07T15:13:19;21.90;40.10
52799;DHT22;38667;42.872;74.622;2023-09-07T15:15:47;21.90;39.60